Aviation Digital Data Service (ADDS)

Output produced by TAFs form (1542 UTC 19 July 2018)
found at http://aviationweather.gov/adds/tafs/
 
KCLT 191452Z 06006KT 10SM OVC075 25/17 A3009 RMK AO2 SLP178 T02500172 51012
KCLT 191351Z 1914/2018 07007KT P6SM SCT050 BKN090 
     FM191900 08007KT P6SM SCT050 
     FM192300 08006KT P6SM BKN060 
     FM200300 11004KT P6SM BKN050 
     FM201300 08006KT P6SM BKN060